Time;durP1;ratioP1;P1;durP2;ratioP2;P2;SDS_P1;SDS_P2;PMS_P1;PMS_P2;Temp;Humidity;BMP_temperature;BMP_pressure;BME280_temperature;BME280_humidity;BME280_pressure;Samples;Min_cycle;Max_cycle;Signal;HPM_P1;HPM_P2
2020/12/07 00:01:21;;;;;;;3.30;2.10;;;;;;;17.45;58.99;99954.75;4844618;29;20061;-78
2020/12/07 00:03:47;;;;;;;3.35;1.90;;;;;;;17.45;58.92;99956.50;4831462;29;20064;-78
2020/12/07 00:06:19;;;;;;;3.60;1.90;;;;;;;17.44;58.87;99947.84;4816876;29;20042;-77
2020/12/07 00:08:46;;;;;;;2.05;1.73;;;;;;;17.44;58.81;99953.06;4830960;29;20405;-78
2020/12/07 00:11:15;;;;;;;2.28;1.63;;;;;;;17.45;58.54;99951.31;4846086;29;20623;-77
2020/12/07 00:13:40;;;;;;;3.50;2.00;;;;;;;17.43;58.72;99946.13;4846759;29;20044;-77
2020/12/07 00:16:12;;;;;;;2.72;1.90;;;;;;;17.45;58.89;99946.09;4846422;29;20034;-78
2020/12/07 00:18:37;;;;;;;2.50;1.65;;;;;;;17.44;58.67;99933.97;4830948;29;20068;-78
2020/12/07 00:21:10;;;;;;;3.38;1.98;;;;;;;17.42;58.70;99934.03;4853251;29;20025;-77
2020/12/07 00:23:36;;;;;;;2.05;1.63;;;;;;;17.43;58.69;99925.31;4862988;29;20048;-77
2020/12/07 00:26:02;;;;;;;3.40;1.83;;;;;;;17.43;58.49;99920.13;4830840;29;22221;-77
2020/12/07 00:28:27;;;;;;;2.53;1.77;;;;;;;17.42;58.47;99913.22;4844393;29;20485;-77
2020/12/07 00:30:53;;;;;;;2.45;1.83;;;;;;;17.42;58.71;99908.03;4823113;29;20072;-77
2020/12/07 00:33:18;;;;;;;2.35;1.60;;;;;;;17.42;58.74;99908.03;4830719;29;20022;-78
2020/12/07 00:35:44;;;;;;;2.20;1.60;;;;;;;17.42;58.46;99901.94;4817941;29;20045;-77
2020/12/07 00:38:09;;;;;;;2.40;1.75;;;;;;;17.42;58.36;99888.94;4830509;29;20034;-77
2020/12/07 00:40:34;;;;;;;3.13;1.50;;;;;;;17.40;58.52;99889.00;4848854;29;20068;-78
2020/12/07 00:43:00;;;;;;;2.25;1.65;;;;;;;17.41;58.45;99895.91;4831999;29;20042;-78
2020/12/07 00:45:25;;;;;;;2.33;1.70;;;;;;;17.40;58.48;99889.00;4842493;29;20073;-77
2020/12/07 00:47:50;;;;;;;2.92;1.55;;;;;;;17.41;58.34;99885.50;4860597;29;20041;-78
2020/12/07 00:50:16;;;;;;;2.75;1.80;;;;;;;17.41;58.55;99889.84;4827875;29;20034;-77
2020/12/07 00:52:42;;;;;;;4.63;1.67;;;;;;;17.40;58.50;99876.00;4845919;29;20038;-77
2020/12/07 00:55:08;;;;;;;2.42;1.52;;;;;;;17.41;58.33;99882.03;4837923;29;20047;-78
2020/12/07 00:57:33;;;;;;;2.25;1.60;;;;;;;17.39;58.20;99874.28;4813705;29;20517;-78
2020/12/07 00:59:58;;;;;;;2.78;1.60;;;;;;;17.40;58.21;99864.75;4811723;29;20472;-77
2020/12/07 01:02:24;;;;;;;2.75;1.70;;;;;;;17.40;58.21;99859.53;4807023;29;20478;-78
2020/12/07 01:04:49;;;;;;;2.28;1.70;;;;;;;17.39;58.17;99842.22;4828109;29;20488;-78
2020/12/07 01:07:15;;;;;;;2.72;1.58;;;;;;;17.39;58.20;99837.84;4845326;29;20038;-77
2020/12/07 01:09:40;;;;;;;2.78;1.77;;;;;;;17.38;57.79;99823.16;4814195;29;20034;-78
2020/12/07 01:12:05;;;;;;;3.38;1.85;;;;;;;17.38;58.06;99823.16;4845732;29;20030;-78
2020/12/07 01:14:31;;;;;;;1.70;1.38;;;;;;;17.38;58.27;99823.16;4841996;29;20114;-78
2020/12/07 01:16:58;;;;;;;3.75;1.50;;;;;;;17.38;57.75;99820.56;4817426;29;20037;-78
2020/12/07 01:19:24;;;;;;;2.15;1.40;;;;;;;17.39;58.12;99826.59;4845016;29;20026;-78
2020/12/07 01:21:49;;;;;;;2.45;1.58;;;;;;;17.38;58.26;99823.16;4833893;29;20049;-78
2020/12/07 01:24:15;;;;;;;3.40;1.40;;;;;;;17.38;57.63;99833.56;4827875;29;20061;-78
2020/12/07 01:26:40;;;;;;;2.45;1.50;;;;;;;17.37;57.87;99831.00;4843364;29;20070;-78
2020/12/07 01:29:06;;;;;;;1.95;1.55;;;;;;;17.38;57.92;99836.16;4829944;29;20089;-77
2020/12/07 01:31:32;;;;;;;2.00;1.30;;;;;;;17.37;57.97;99834.44;4844936;29;20028;-77
2020/12/07 01:33:58;;;;;;;2.53;1.65;;;;;;;17.38;57.89;99837.91;4844233;29;20045;-78
2020/12/07 01:36:24;;;;;;;1.52;1.30;;;;;;;17.37;58.03;99836.19;4861942;29;20037;-78
2020/12/07 01:38:49;;;;;;;2.22;1.50;;;;;;;17.37;57.64;99841.41;4843917;29;20481;-77
2020/12/07 01:41:14;;;;;;;2.17;1.38;;;;;;;17.36;57.82;99848.34;4849509;29;20034;-77
2020/12/07 01:43:40;;;;;;;2.05;1.60;;;;;;;17.37;57.75;99851.81;4828967;29;20037;-78
2020/12/07 01:46:06;;;;;;;3.03;1.50;;;;;;;17.37;57.52;99863.03;4827551;29;20066;-78
2020/12/07 01:48:33;;;;;;;1.95;1.40;;;;;;;17.37;57.90;99873.44;4858587;29;20025;-78
2020/12/07 01:50:58;;;;;;;3.70;1.40;;;;;;;17.37;57.73;99864.81;4836085;29;20481;-78
2020/12/07 01:53:24;;;;;;;1.80;1.33;;;;;;;17.36;57.67;99866.56;4852662;29;20066;-78
2020/12/07 01:55:50;;;;;;;1.88;1.40;;;;;;;17.36;57.93;99863.94;4848131;29;20053;-78
2020/12/07 01:58:16;;;;;;;1.67;1.15;;;;;;;17.37;57.65;99851.81;4827562;29;20030;-78
2020/12/07 02:00:42;;;;;;;1.38;1.20;;;;;;;17.35;57.47;99844.03;4833876;29;20038;-78
2020/12/07 02:03:09;;;;;;;1.90;1.20;;;;;;;17.36;57.60;99840.56;4849178;29;20044;-78
2020/12/07 02:05:38;;;;;;;1.45;1.10;;;;;;;17.36;57.67;99831.91;4814557;29;20030;-78
2020/12/07 02:08:19;;;;;;;1.95;1.23;;;;;;;17.37;57.56;99831.00;4851700;29;20056;-78
2020/12/07 02:10:46;;;;;;;1.80;1.10;;;;;;;17.36;57.53;99824.94;4845677;29;20416;-78
2020/12/07 02:13:12;;;;;;;1.90;1.13;;;;;;;17.36;57.59;99814.53;4831855;29;20039;-78
2020/12/07 02:15:38;;;;;;;2.10;1.25;;;;;;;17.35;57.57;99815.41;4830691;29;20489;-78
2020/12/07 02:18:05;;;;;;;1.30;1.10;;;;;;;17.35;57.37;99807.63;4842362;29;20042;-78
2020/12/07 02:20:31;;;;;;;1.92;1.33;;;;;;;17.36;57.52;99809.34;4847780;29;20029;-79
2020/12/07 02:22:56;;;;;;;1.67;1.25;;;;;;;17.35;57.38;99805.00;4852563;29;20033;-78
2020/12/07 02:25:22;;;;;;;1.67;1.20;;;;;;;17.35;57.43;99810.22;4847389;29;20050;-78
2020/12/07 02:27:49;;;;;;;1.95;1.42;;;;;;;17.35;57.33;99804.16;4841492;29;20055;-78
2020/12/07 02:30:16;;;;;;;1.55;1.10;;;;;;;17.34;57.42;99805.94;4861070;29;20014;-78
2020/12/07 02:32:45;;;;;;;1.58;1.05;;;;;;;17.35;57.37;99801.56;4842188;29;20481;-78
2020/12/07 02:35:12;;;;;;;1.65;1.30;;;;;;;17.34;57.47;99800.72;4828301;29;20042;-79
2020/12/07 02:37:38;;;;;;;1.70;1.20;;;;;;;17.35;57.30;99806.78;4844375;29;20082;-78
2020/12/07 02:40:04;;;;;;;2.63;1.17;;;;;;;17.34;57.86;99805.06;4827285;29;20033;-78
2020/12/07 02:42:32;;;;;;;1.95;1.10;;;;;;;17.34;57.54;99794.69;4826987;29;20037;-78
2020/12/07 02:44:59;;;;;;;1.67;1.08;;;;;;;17.33;57.33;99798.16;4813041;29;20046;-78
2020/12/07 02:47:26;;;;;;;1.63;1.00;;;;;;;17.33;57.43;99787.75;4835037;29;20121;-78
2020/12/07 02:49:51;;;;;;;2.33;1.08;;;;;;;17.33;57.40;99790.34;4833419;29;20033;-78
2020/12/07 02:52:16;;;;;;;1.30;1.20;;;;;;;17.33;57.33;99782.56;4828071;29;20094;-78
2020/12/07 02:54:42;;;;;;;1.38;1.00;;;;;;;17.33;57.44;99783.41;4812408;29;20515;-78
2020/12/07 02:57:07;;;;;;;3.15;1.00;;;;;;;17.32;57.05;99775.66;4813360;29;20036;-78
2020/12/07 02:59:32;;;;;;;1.45;1.00;;;;;;;17.33;57.17;99766.94;4813120;29;20469;-78
2020/12/07 03:01:58;;;;;;;1.30;1.10;;;;;;;17.34;57.13;99753.06;4827861;29;20030;-78
2020/12/07 03:04:23;;;;;;;1.67;0.90;;;;;;;17.32;57.17;99745.28;4830262;29;20034;-78
2020/12/07 03:06:48;;;;;;;1.45;0.85;;;;;;;17.32;57.08;99736.66;4814635;29;20038;-78
2020/12/07 03:09:14;;;;;;;1.58;0.88;;;;;;;17.32;57.11;99737.50;4833090;29;20081;-78
2020/12/07 03:11:39;;;;;;;1.38;1.05;;;;;;;17.32;57.03;99737.50;4822526;29;20026;-78
2020/12/07 03:14:04;;;;;;;1.27;0.95;;;;;;;17.32;57.13;99739.25;4817355;29;20253;-78
2020/12/07 03:16:30;;;;;;;2.05;0.93;;;;;;;17.32;57.12;99750.50;4814848;29;20162;-78
2020/12/07 03:18:55;;;;;;;1.25;0.95;;;;;;;17.32;57.08;99750.50;4844122;29;20476;-78
2020/12/07 03:21:20;;;;;;;1.25;0.90;;;;;;;17.31;57.00;99740.13;4846764;29;20056;-78
2020/12/07 03:23:46;;;;;;;1.13;0.93;;;;;;;17.31;57.22;99737.53;4829044;29;20114;-78
2020/12/07 03:26:11;;;;;;;1.38;0.80;;;;;;;17.32;57.17;99745.28;4813720;29;20489;-78
2020/12/07 03:28:36;;;;;;;1.10;0.90;;;;;;;17.30;56.95;99741.03;4815365;29;20429;-78
2020/12/07 03:31:02;;;;;;;1.10;0.90;;;;;;;17.31;57.08;99743.59;4825330;29;20551;-78
2020/12/07 03:33:27;;;;;;;1.42;0.90;;;;;;;17.30;56.86;99741.88;4816238;29;20041;-78
2020/12/07 03:35:52;;;;;;;1.40;0.88;;;;;;;17.31;56.79;99743.59;4818327;29;20034;-78
2020/12/07 03:38:18;;;;;;;1.65;1.05;;;;;;;17.31;56.95;99732.31;4843917;29;20061;-78
2020/12/07 03:40:43;;;;;;;1.42;0.90;;;;;;;17.30;56.77;99723.69;4832285;29;20048;-78
2020/12/07 03:43:08;;;;;;;1.23;0.80;;;;;;;17.30;56.90;99722.84;4820220;29;20493;-78
2020/12/07 03:45:34;;;;;;;1.23;0.80;;;;;;;17.30;56.93;99713.28;4800557;29;20509;-78
2020/12/07 03:47:59;;;;;;;0.98;0.80;;;;;;;17.29;56.92;99711.59;4829277;29;20045;-78
2020/12/07 03:50:24;;;;;;;1.40;1.05;;;;;;;17.30;56.68;99710.69;4830968;29;20068;-78
2020/12/07 03:52:50;;;;;;;1.90;0.70;;;;;;;17.31;56.66;99703.72;4846079;29;20068;-78
2020/12/07 03:55:15;;;;;;;1.67;0.85;;;;;;;17.28;56.75;99692.50;4831713;29;20097;-78
2020/12/07 03:57:40;;;;;;;1.08;0.73;;;;;;;17.30;56.35;99683.84;4814811;29;20081;-78
2020/12/07 04:00:06;;;;;;;2.28;1.00;;;;;;;17.30;56.76;99684.69;4818089;29;20034;-78
2020/12/07 04:02:32;;;;;;;0.98;0.77;;;;;;;17.29;56.75;99685.59;4830884;29;20036;-78
2020/12/07 04:05:16;;;;;;;1.05;0.70;;;;;;;17.29;56.56;99688.19;4825990;29;20034;-78
2020/12/07 04:07:42;;;;;;;1.20;0.70;;;;;;;17.28;56.92;99684.72;4821268;29;20025;-78
2020/12/07 04:10:07;;;;;;;1.15;0.70;;;;;;;17.28;56.52;99692.50;4815703;29;20040;-78
2020/12/07 04:12:33;;;;;;;1.73;0.80;;;;;;;17.28;56.70;99691.66;4812986;29;20105;-78
2020/12/07 04:14:58;;;;;;;1.60;0.90;;;;;;;17.30;56.64;99699.44;4827337;29;20052;-78
2020/12/07 04:17:23;;;;;;;1.55;0.85;;;;;;;17.28;56.71;99691.66;4855179;29;20045;-78
2020/12/07 04:19:49;;;;;;;1.10;0.80;;;;;;;17.28;56.69;99689.06;4816086;29;20044;-78
2020/12/07 04:22:14;;;;;;;0.73;0.70;;;;;;;17.27;56.60;99687.38;4857447;29;20042;-78
2020/12/07 04:24:39;;;;;;;1.55;0.80;;;;;;;17.28;56.67;99687.31;4816590;29;20136;-78
2020/12/07 04:27:05;;;;;;;1.38;0.90;;;;;;;17.28;56.49;99694.25;4855240;29;20067;-78
2020/12/07 04:29:30;;;;;;;0.82;0.60;;;;;;;17.27;56.23;99687.38;4815586;29;20030;-78
2020/12/07 04:31:55;;;;;;;1.13;0.70;;;;;;;17.27;56.55;99683.03;4842238;29;20112;-78
2020/12/07 04:34:21;;;;;;;2.10;0.80;;;;;;;17.26;56.50;99685.66;4826884;29;20159;-78
2020/12/07 04:36:46;;;;;;;1.00;0.70;;;;;;;17.27;56.62;99684.78;4830051;29;20103;-78
2020/12/07 04:39:11;;;;;;;0.93;0.55;;;;;;;17.27;56.40;99680.41;4839581;29;20091;-78
2020/12/07 04:41:41;;;;;;;1.10;0.80;;;;;;;17.26;56.33;99681.28;4819106;29;20038;-78
2020/12/07 04:44:07;;;;;;;1.20;0.77;;;;;;;17.27;56.54;99679.56;4855598;29;20029;-78
2020/12/07 04:46:33;;;;;;;1.08;0.80;;;;;;;17.27;56.32;99671.78;4844808;29;20049;-78
2020/12/07 04:49:00;;;;;;;0.90;0.63;;;;;;;17.27;56.33;99679.56;4840101;29;20034;-78
2020/12/07 04:51:26;;;;;;;0.95;0.70;;;;;;;17.26;56.51;99680.44;4845292;29;20044;-78
2020/12/07 04:53:52;;;;;;;1.13;0.75;;;;;;;17.25;56.40;99677.00;4845477;29;20030;-78
2020/12/07 04:56:18;;;;;;;1.08;0.60;;;;;;;17.25;56.47;99677.00;4831443;29;20434;-78
2020/12/07 04:58:43;;;;;;;1.27;0.80;;;;;;;17.26;56.64;99676.09;4845517;29;20037;-78
2020/12/07 05:01:09;;;;;;;1.83;0.80;;;;;;;17.25;56.47;99677.00;4842089;29;20396;-78
2020/12/07 05:03:34;;;;;;;0.95;0.65;;;;;;;17.25;56.28;99679.59;4856544;29;20073;-78
2020/12/07 05:06:00;;;;;;;1.65;0.70;;;;;;;17.25;56.31;99677.00;4851355;29;20049;-78
2020/12/07 05:08:26;;;;;;;1.05;0.63;;;;;;;17.24;56.42;99674.44;4835787;29;20105;-78
2020/12/07 05:10:51;;;;;;;2.45;0.60;;;;;;;17.25;56.25;99679.59;4847423;29;20033;-78
2020/12/07 05:15:48;;;;;;;1.50;0.60;;;;;;;17.27;56.41;99671.78;4862583;29;20025;-78
2020/12/07 05:18:14;;;;;;;1.63;0.80;;;;;;;17.27;56.40;99669.16;4857173;29;20394;-78
2020/12/07 05:20:39;;;;;;;0.60;0.60;;;;;;;17.27;56.41;99672.63;4823832;29;20061;-78
2020/12/07 05:23:05;;;;;;;0.75;0.60;;;;;;;17.30;56.19;99671.69;4830997;29;20433;-78
2020/12/07 05:25:31;;;;;;;1.73;0.60;;;;;;;17.32;56.33;99666.44;4816111;29;20416;-78
2020/12/07 05:27:59;;;;;;;1.05;0.65;;;;;;;17.31;56.42;99657.81;4852982;29;20396;-78
2020/12/07 05:30:39;;;;;;;0.80;0.60;;;;;;;17.32;56.60;99658.66;4847375;29;20059;-78
2020/12/07 05:33:05;;;;;;;0.65;0.60;;;;;;;17.33;56.36;99653.38;4837853;29;20175;-77
2020/12/07 05:35:35;;;;;;;1.10;0.68;;;;;;;17.35;56.18;99650.75;4813222;29;20037;-77
2020/12/07 05:38:05;;;;;;;2.08;0.50;;;;;;;17.36;56.34;99652.47;4827509;29;20116;-77
2020/12/07 05:40:31;;;;;;;1.20;0.65;;;;;;;17.37;56.33;99655.00;4830281;29;20034;-77
2020/12/07 05:42:58;;;;;;;1.30;0.60;;;;;;;17.40;56.71;99652.34;4847517;29;20037;-78
2020/12/07 05:45:24;;;;;;;4.07;0.80;;;;;;;17.42;56.66;99653.16;4831570;29;20048;-78
2020/12/07 05:47:53;;;;;;;1.00;0.60;;;;;;;17.48;56.18;99658.19;4843202;29;20037;-77
2020/12/07 05:50:20;;;;;;;0.82;0.60;;;;;;;17.50;56.08;99647.72;4836398;29;20021;-77
2020/12/07 05:52:52;;;;;;;0.95;0.63;;;;;;;17.51;55.95;99658.97;4842546;29;20081;-78
2020/12/07 05:55:19;;;;;;;1.00;0.63;;;;;;;17.48;56.04;99668.59;4860225;29;20025;-79
2020/12/07 05:57:56;;;;;;;1.65;0.80;;;;;;;17.51;56.13;99669.38;4844903;29;20067;-78
2020/12/07 06:00:23;;;;;;;3.72;0.70;;;;;;;17.51;56.06;99672.84;4842872;29;20088;-78
2020/12/07 06:02:53;;;;;;;2.67;0.98;;;;;;;17.56;56.38;99663.16;4819967;29;20085;-78
2020/12/07 06:05:23;;;;;;;9.63;3.53;;;;;;;17.57;56.44;99664.00;4857570;29;20038;-78
2020/12/07 06:07:52;;;;;;;16.23;5.85;;;;;;;17.59;56.72;99659.63;4861783;29;20408;-76
2020/12/07 06:10:19;;;;;;;15.25;4.10;;;;;;;17.57;56.55;99659.69;4850486;29;20374;-78
2020/12/07 06:12:52;;;;;;;14.18;4.07;;;;;;;17.57;56.75;99656.19;4860487;29;20021;-82
2020/12/07 06:15:20;;;;;;;11.63;3.20;;;;;;;17.55;56.63;99647.59;4880235;29;20037;-81
2020/12/07 06:18:31;;;;;;;8.07;2.63;;;;;;;17.53;56.45;99634.66;5087797;24;20072;-81
2020/12/07 06:21:04;;;;;;;9.75;2.70;;;;;;;17.51;56.53;99633.84;4841576;29;20038;-82
2020/12/07 06:23:42;;;;;;;;;;;;;;;17.50;56.81;99629.50;4828789;29;20034;-81
2020/12/07 06:26:12;;;;;;;8.55;2.47;;;;;;;17.50;56.72;99631.28;4819676;29;19952;-80
2020/12/07 06:28:41;;;;;;;8.82;2.20;;;;;;;17.48;56.88;99621.78;4818061;29;20058;-80
2020/12/07 06:31:18;;;;;;;7.53;2.10;;;;;;;17.48;56.86;99621.78;4829358;29;20487;-81
2020/12/07 06:33:47;;;;;;;6.93;2.08;;;;;;;17.48;56.56;99629.56;4820692;29;20034;-80
2020/12/07 06:36:27;;;;;;;6.45;2.53;;;;;;;17.48;56.67;99626.09;4823395;29;20030;-82
2020/12/07 06:39:00;;;;;;;5.78;1.80;;;;;;;17.48;56.68;99626.09;4828490;29;20030;-81
2020/12/07 06:41:33;;;;;;;4.97;1.92;;;;;;;17.48;56.84;99624.38;4828950;29;20501;-81
2020/12/07 06:44:00;;;;;;;5.07;1.90;;;;;;;17.47;56.75;99621.81;4827301;29;20053;-81
2020/12/07 06:46:49;;;;;;;6.70;2.25;;;;;;;17.48;56.52;99626.09;4806277;29;20038;-81
2020/12/07 06:49:16;;;;;;;4.05;1.70;;;;;;;17.48;56.68;99619.19;4821690;29;20026;-81
2020/12/07 06:51:45;;;;;;;7.90;1.70;;;;;;;17.48;56.44;99623.50;4822306;29;20042;-81
2020/12/07 06:57:31;;;;;;;4.85;1.98;;;;;;;17.49;56.68;99635.63;4831721;29;20033;-81
2020/12/07 07:00:05;;;;;;;4.25;1.67;;;;;;;17.48;56.56;99636.50;4836187;29;20053;-81
2020/12/07 07:02:30;;;;;;;5.90;1.63;;;;;;;17.48;56.68;99644.31;4831314;29;20122;-82
2020/12/07 07:04:59;;;;;;;3.85;1.60;;;;;;;17.48;56.50;99654.72;4832977;29;20039;-82
2020/12/07 07:07:26;;;;;;;4.15;1.65;;;;;;;17.48;56.39;99657.31;4826541;29;20026;-81
2020/12/07 07:09:53;;;;;;;3.65;1.60;;;;;;;17.48;56.42;99653.00;4811178;29;20069;-81
2020/12/07 07:12:22;;;;;;;3.22;1.40;;;;;;;17.49;56.42;99664.22;4834114;29;20022;-82
2020/12/07 07:14:53;;;;;;;4.72;1.55;;;;;;;17.48;56.32;99659.91;4828828;29;20065;-81
2020/12/07 07:17:21;;;;;;;2.90;1.40;;;;;;;17.47;56.34;99661.66;4809308;29;20046;-80
2020/12/07 07:19:47;;;;;;;3.28;1.27;;;;;;;17.50;56.45;99657.28;4822769;29;20030;-81
2020/12/07 07:22:13;;;;;;;2.90;1.40;;;;;;;17.49;56.43;99659.03;4809540;29;20472;-81
2020/12/07 07:24:49;;;;;;;2.65;1.35;;;;;;;17.48;56.27;99655.59;4799493;29;20417;-80
2020/12/07 07:29:59;;;;;;;6.55;1.25;;;;;;;17.50;56.30;99663.31;4814890;29;20111;-80
2020/12/07 07:32:24;;;;;;;3.15;1.38;;;;;;;17.50;56.18;99663.31;4810458;29;20043;-80
2020/12/07 07:34:50;;;;;;;3.45;1.45;;;;;;;17.50;56.22;99652.91;4812956;29;20086;-80
2020/12/07 07:37:17;;;;;;;3.05;1.20;;;;;;;17.51;56.25;99659.84;4821185;29;20030;-80
2020/12/07 07:39:47;;;;;;;3.33;1.13;;;;;;;17.50;56.22;99660.72;4792389;29;20526;-81
2020/12/07 07:42:16;;;;;;;2.72;1.27;;;;;;;17.50;56.28;99658.13;4822495;29;20031;-80
2020/12/07 07:44:45;;;;;;;3.58;1.15;;;;;;;17.51;56.26;99661.56;4830983;29;20042;-81
2020/12/07 07:47:17;;;;;;;2.75;1.17;;;;;;;17.50;56.04;99660.72;4822463;29;20139;-81
2020/12/07 07:53:13;;;;;;;4.45;1.30;;;;;;;17.51;56.12;99658.97;4810621;29;20041;-81
2020/12/07 08:17:58;;;;;;;2.28;0.93;;;;;;;17.55;56.06;99650.19;4815400;29;20212;-80
2020/12/07 08:20:26;;;;;;;2.92;1.00;;;;;;;17.54;55.88;99651.94;4814663;29;20045;-80
2020/12/07 08:23:06;;;;;;;1.85;0.90;;;;;;;17.54;55.90;99654.53;4821557;29;20559;-80
2020/12/07 08:25:46;;;;;;;2.20;1.00;;;;;;;17.56;55.77;99654.50;4818155;29;20022;-81
2020/12/07 08:28:33;;;;;;;2.42;1.00;;;;;;;17.56;55.76;99663.16;4825492;29;20027;-80
2020/12/07 08:31:13;;;;;;;1.48;0.85;;;;;;;17.56;55.83;99672.72;4827356;29;20018;-80
2020/12/07 08:33:57;;;;;;;1.83;1.10;;;;;;;17.57;55.81;99677.88;4812619;29;20090;-80
2020/12/07 08:36:22;;;;;;;3.13;1.10;;;;;;;17.57;55.89;99674.41;4815982;29;20363;-80
2020/12/07 08:38:48;;;;;;;1.90;0.90;;;;;;;17.57;55.78;99682.22;4816547;29;20038;-80
2020/12/07 08:41:15;;;;;;;1.42;0.82;;;;;;;17.57;55.64;99677.00;4824432;29;20098;-80
2020/12/07 08:43:49;;;;;;;1.60;0.70;;;;;;;17.56;55.41;99683.97;4816079;29;20098;-81
2020/12/07 08:46:18;;;;;;;2.42;0.98;;;;;;;17.57;55.67;99683.09;4821784;29;20056;-81
2020/12/07 08:48:43;;;;;;;1.58;0.80;;;;;;;17.58;55.79;99689.97;4808876;29;20043;-80
2020/12/07 08:51:09;;;;;;;2.42;0.73;;;;;;;17.59;55.72;99685.63;4823701;29;20490;-80
2020/12/07 08:53:36;;;;;;;1.08;0.70;;;;;;;17.59;55.77;99696.03;4800890;29;20058;-80
2020/12/07 08:56:09;;;;;;;1.73;0.90;;;;;;;17.60;55.73;99684.75;4817671;29;20027;-81
2020/12/07 08:58:35;;;;;;;1.10;0.70;;;;;;;17.60;55.80;99693.41;4817891;29;20039;-81
2020/12/07 09:01:05;;;;;;;2.25;0.88;;;;;;;17.61;55.55;99702.03;4821317;29;20470;-80
2020/12/07 09:03:31;;;;;;;1.33;0.80;;;;;;;17.61;55.70;99694.25;4815631;29;20103;-81
2020/12/07 09:05:56;;;;;;;0.88;0.60;;;;;;;17.62;55.78;99696.81;4808314;29;20064;-80
2020/12/07 09:08:22;;;;;;;1.00;0.63;;;;;;;17.62;55.76;99699.41;4805061;29;20042;-81
2020/12/07 09:10:47;;;;;;;1.50;0.60;;;;;;;17.62;55.83;99698.56;4798018;29;20083;-81
2020/12/07 09:13:13;;;;;;;1.52;0.80;;;;;;;17.61;55.58;99702.91;4787205;29;20072;-81
2020/12/07 09:15:39;;;;;;;1.48;0.63;;;;;;;17.61;55.45;99697.69;4824162;29;20119;-81
2020/12/07 09:18:04;;;;;;;0.73;0.50;;;;;;;17.59;55.66;99694.28;4809280;29;607725;-81
2020/12/07 09:20:32;;;;;;;1.38;0.70;;;;;;;17.58;55.46;99691.75;4820581;29;20078;-81
2020/12/07 09:22:58;;;;;;;0.88;0.57;;;;;;;17.58;55.41;99694.34;4825452;29;20087;-80
2020/12/07 09:25:23;;;;;;;1.25;0.68;;;;;;;17.57;55.64;99695.22;4830433;29;20126;-80
2020/12/07 09:27:49;;;;;;;1.60;0.80;;;;;;;17.56;55.81;99702.19;4796321;29;20049;-80
2020/12/07 09:30:14;;;;;;;1.00;0.60;;;;;;;17.57;55.45;99705.63;4796297;29;20041;-81
2020/12/07 09:32:39;;;;;;;1.20;0.70;;;;;;;17.54;55.46;99700.53;4819923;29;20031;-80
2020/12/07 09:35:08;;;;;;;1.17;0.70;;;;;;;17.55;55.67;99704.81;4799035;29;20113;-80
2020/12/07 09:37:38;;;;;;;1.40;0.70;;;;;;;17.54;55.58;99713.53;4813527;29;20503;-80
2020/12/07 09:40:06;;;;;;;0.90;0.60;;;;;;;17.54;55.68;99710.94;4822878;29;20065;-80
2020/12/07 09:42:34;;;;;;;2.20;0.70;;;;;;;17.54;55.44;99713.53;4825749;29;20126;-80
2020/12/07 09:45:00;;;;;;;1.35;0.55;;;;;;;17.53;55.30;99719.59;4823945;29;20046;-80
2020/12/07 09:47:26;;;;;;;1.30;0.80;;;;;;;17.52;55.37;99713.56;4819708;29;20084;-80
2020/12/07 09:49:52;;;;;;;1.02;0.60;;;;;;;17.54;55.30;99721.34;4817563;29;20440;-80
2020/12/07 09:52:20;;;;;;;1.00;0.60;;;;;;;17.54;55.32;99710.94;4800533;29;20026;-80
2020/12/07 09:54:47;;;;;;;1.25;0.70;;;;;;;17.53;55.19;99710.06;4806625;29;20174;-80
2020/12/07 09:57:13;;;;;;;1.50;0.68;;;;;;;17.55;55.30;99704.81;4794495;29;20030;-77
2020/12/07 09:59:39;;;;;;;1.17;0.60;;;;;;;17.54;55.28;99703.13;4819250;29;20038;-77
2020/12/07 10:02:04;;;;;;;4.03;0.63;;;;;;;17.53;55.28;99702.28;4816576;29;20079;-77
2020/12/07 10:04:30;;;;;;;1.27;0.65;;;;;;;17.55;55.19;99699.63;4817389;29;20435;-77
2020/12/07 10:06:55;;;;;;;0.77;0.40;;;;;;;17.52;55.17;99692.75;4826651;29;20035;-77
2020/12/07 10:09:21;;;;;;;0.70;0.52;;;;;;;17.54;55.27;99692.72;4791619;29;20039;-77
2020/12/07 10:11:48;;;;;;;1.33;0.65;;;;;;;17.53;55.00;99697.06;4820286;29;20529;-77
2020/12/07 10:14:13;;;;;;;1.08;0.65;;;;;;;17.54;55.25;99692.72;4805882;29;20035;-77
2020/12/07 10:16:43;;;;;;;1.80;0.75;;;;;;;17.53;55.19;99697.06;4830298;29;20448;-77
2020/12/07 10:19:09;;;;;;;0.80;0.50;;;;;;;17.54;55.08;99701.38;4819342;29;20194;-81
2020/12/07 10:21:35;;;;;;;1.48;0.60;;;;;;;17.53;55.12;99706.59;4817549;29;20121;-81
2020/12/07 10:24:00;;;;;;;1.27;0.70;;;;;;;17.51;55.03;99704.06;4823082;29;20082;-80
2020/12/07 10:26:26;;;;;;;1.75;0.68;;;;;;;17.50;54.86;99707.53;4805880;29;20077;-80
2020/12/07 10:28:52;;;;;;;1.48;0.70;;;;;;;17.50;55.06;99707.53;4833201;29;20123;-80
2020/12/07 10:31:22;;;;;;;1.90;0.70;;;;;;;17.48;54.91;99710.22;4816454;29;20378;-81
2020/12/07 10:33:48;;;;;;;1.08;0.68;;;;;;;17.50;55.11;99706.69;4799686;29;20038;-80
2020/12/07 10:36:16;;;;;;;0.70;0.40;;;;;;;17.50;55.13;99704.09;4811534;29;20038;-80
2020/12/07 10:38:45;;;;;;;1.17;0.52;;;;;;;17.49;54.89;99695.44;4836356;29;20163;-80
2020/12/07 10:41:10;;;;;;;1.25;0.55;;;;;;;17.49;54.89;99700.66;4823318;29;20125;-81
2020/12/07 10:43:37;;;;;;;1.15;0.70;;;;;;;17.50;55.01;99691.09;4804439;29;20069;-80
2020/12/07 10:46:03;;;;;;;0.98;0.60;;;;;;;17.50;55.17;99691.94;4817001;29;20038;-80
2020/12/07 10:48:28;;;;;;;1.08;0.63;;;;;;;17.51;55.11;99684.97;4823127;29;20036;-81
2020/12/07 10:50:53;;;;;;;1.00;0.65;;;;;;;17.51;54.83;99683.25;4789410;29;20030;-81
2020/12/07 10:53:21;;;;;;;1.13;0.63;;;;;;;17.52;54.96;99681.50;4820277;29;20030;-80
2020/12/07 10:55:47;;;;;;;0.95;0.57;;;;;;;17.50;54.94;99678.94;4829357;29;20034;-81
2020/12/07 10:58:12;;;;;;;0.70;0.50;;;;;;;17.51;54.79;99679.78;4826800;29;20044;-80
2020/12/07 11:00:39;;;;;;;0.70;0.60;;;;;;;17.50;54.85;99678.94;4841383;29;20029;-79
2020/12/07 11:03:05;;;;;;;1.05;0.60;;;;;;;17.49;55.02;99685.03;4849275;29;20042;-79
2020/12/07 11:05:32;;;;;;;3.22;1.65;;;;;;;17.49;55.34;99682.44;4837012;29;20443;-80
2020/12/07 11:07:57;;;;;;;3.97;1.77;;;;;;;17.47;55.03;99684.22;4845405;29;20034;-81
2020/12/07 11:10:23;;;;;;;3.90;2.30;;;;;;;17.47;55.16;99684.22;4843003;29;20029;-82
2020/12/07 11:12:56;;;;;;;3.55;2.20;;;;;;;17.46;54.96;99682.50;4855381;29;20049;-81
2020/12/07 11:15:21;;;;;;;;;;;;;;;17.46;55.07;99688.59;4843982;29;20026;-81
2020/12/07 11:17:47;;;;;;;4.57;2.28;;;;;;;17.46;55.18;99695.50;4838281;29;19950;-82
2020/12/07 11:20:12;;;;;;;3.47;2.05;;;;;;;17.46;55.24;99691.19;4823748;29;20101;-82
2020/12/07 11:22:37;;;;;;;3.03;2.17;;;;;;;17.45;55.26;99694.66;4820222;29;20026;-77
2020/12/07 11:25:03;;;;;;;4.90;2.38;;;;;;;17.46;55.15;99703.31;4805339;29;20034;-81
2020/12/07 11:27:28;;;;;;;5.13;2.70;;;;;;;17.45;55.25;99699.03;4816187;29;20048;-81
2020/12/07 11:29:53;;;;;;;4.28;2.67;;;;;;;17.45;55.34;99694.66;4811574;29;20103;-81
2020/12/07 11:32:19;;;;;;;3.47;2.25;;;;;;;17.46;55.06;99691.19;4824324;29;20029;-81
2020/12/07 11:34:44;;;;;;;3.65;2.10;;;;;;;17.48;55.10;99685.91;4802005;29;20058;-81
2020/12/07 11:37:10;;;;;;;4.30;2.25;;;;;;;17.48;55.05;99685.91;4816894;29;20038;-77
2020/12/07 11:42:26;;;;;;;5.07;2.40;;;;;;;17.48;54.92;99683.31;4822662;29;20038;-77
2020/12/07 11:44:52;;;;;;;4.07;2.40;;;;;;;17.47;55.12;99687.69;4817847;29;20038;-77
2020/12/07 11:47:17;;;;;;;3.38;2.00;;;;;;;17.47;54.86;99681.63;4804570;29;20142;-77
2020/12/07 11:49:42;;;;;;;4.20;2.03;;;;;;;17.45;54.94;99676.47;4833354;29;20129;-78
2020/12/07 11:52:08;;;;;;;3.38;2.00;;;;;;;17.47;54.94;99682.47;4801771;29;20065;-77
2020/12/07 11:54:35;;;;;;;2.53;2.00;;;;;;;17.47;54.66;99676.44;4801215;29;20033;-77
2020/12/07 11:57:04;;;;;;;3.67;2.38;;;;;;;17.47;54.87;99681.63;4814051;29;20037;-77
2020/12/07 11:59:30;;;;;;;2.50;2.03;;;;;;;17.49;54.77;99685.03;4821614;29;20046;-77
2020/12/07 12:01:55;;;;;;;3.70;1.95;;;;;;;17.51;54.75;99684.97;4816813;29;20045;-78
2020/12/07 12:04:21;;;;;;;3.33;1.90;;;;;;;17.51;54.70;99683.25;4829359;29;20110;-77
2020/12/07 12:06:46;;;;;;;5.32;2.00;;;;;;;17.53;54.82;99676.25;4817818;29;20447;-77
2020/12/07 12:09:13;;;;;;;3.33;1.90;;;;;;;17.56;54.63;99672.72;4813089;29;20057;-81
2020/12/07 12:11:40;;;;;;;3.28;1.90;;;;;;;17.59;54.70;99680.44;4835398;29;20124;-81